Wednesday, August 24, 2016
06:49 UTC
  |  Log In   |  Register Free
Airport Search:

Lonesome Pine Airport
(KLNP)

Lonesome Pine Airport Diagram
No Airport Diagram Available

FAA data valid effective May 26 2016 - Jul 21 2016 (unless otherwise noted).

 
 
 
 
 
 
 
 
 
 
 
 
 
 
Current Aviation Weather for KLNP

Weather Summary


The most recent METAR observation for LNP was updated at: 12:55 UTC
METAR for LNP is not available. Closest METAR is for
METAR

METAR KLNP 240635Z 17005KT 10SM CLR 20/12 A3033 RMK AO2

METAR KLNP 240615Z 17007KT 10SM CLR 20/12 A3033 RMK AO2

METAR KLNP 240555Z 17006KT 10SM CLR 20/12 A3034 RMK AO2

METAR KLNP 240535Z 17007KT 10SM CLR 20/12 A3034 RMK AO2

METAR KLNP 240515Z 15005KT 10SM CLR 20/12 A3035 RMK AO2

METAR KLNP 240455Z 00000KT 10SM SCT048 20/12 A3035 RMK AO2

METAR KLNP 240435Z 00000KT 10SM SCT044 SCT050 20/11 A3035 RMK AO2

METAR KLNP 240410Z 00000KT 10SM SCT040 BKN050 19/11 A3036 RMK AO2

METAR KLNP 240355Z 00000KT 10SM SCT042 BKN050 20/11 A3036 RMK AO2

METAR KPBX 240635Z 16003KT 10SM BKN049 19/19 A3025 RMK AO2 T01910191

METAR KTRI 240553Z 00000KT 9SM FEW050 18/17 A3028 RMK AO2 SLP229 T01780167 10261 20178 58003

METAR KVJI 240635Z 00000KT 10SM CLR 20/17 A3031 RMK AO2 T01950172

TAF for LNP is not available.
TAF

KTRI - TAF KTRI 240537Z 2406/2506 00000KT P6SM SCT250

KTRI - FM241400 24005KT P6SM SCT050 BKN250

KTRI - FM250100 00000KT P6SM SCT150 =

GlobalAir.com is loading additional information.
 Current Weather at LNP
68.0 F° (20.0 C°)

North winds at 0.0 mph
Pressure:
30.35 in
Humidity:
60%
Wind:
North at 0.0 mph
Dew Point:
53.6 F° (12.0 C°)
Visibility:
10.00 mi
LNP NOAA Radar




Find All Airport Services Find A Hotel Find A Rental Car Find A Golf Course Find A Restaurant $100 Hamburger



Airport Weather Forecast for KLNP

Translated METAR for KLNP (0635 UTC)
METAR:
KLNP 240635Z AUTO Lonesome Pine, Wise, VA (KLNP). Aug 24, 0635Z, Automated. Wind from 170° at 5 knots, 10 statute miles visibility, Clear Skies, Temperature 20°C, Dewpoint 12°C, Altimeter is 30.33. Remarks: automated station with precipitation discriminator
Conditions at:
KLNP (Lonesome Pine, VA) observed 0635 UTC 24 August 2016
Temperature:
68.0 F° (20.0 C°)
Dewpoint:
not reported - refer to area weather report
Pressure:
30.35 Hg
Winds:
not reported
Visibility:
10.00
Ceiling:
at least 12,000 feet AGL
Clouds:
not reported - refer to area weather report
Remarks:
site is un-manned

Translated TAF for TAF for LNP is not available. Refer to local area forecast.
FBO's on the Field
FBO Company Facility Photos Services Transportation Aviation Fuel Prices: Prices include tax
Catering Weather Repair Courtesy Rental Type 100LL JetA JetA+ MOGAS 8087
 
Lonesome Pine Airport

This FBO has not yet been rated
FS:Shell
Last Updated: Jul-21
Login to update fuel prices
SS:
Contact Lonesome Pine AirportMore FBO Information
 
Add another FBO Facility Photos Catering Weather Repair Courtesy Rental Type 100LL JetA JetA+ MOGAS 8087
Services Transportation Aviation Fuel Prices: Prices include tax


model-print
model-print
model-print
model-print